Terminal Aerodrome Forecast
Issued by NWS

Home | Current Version | Previous Version | Text Only | Print | Product List | Glossary On
Versions: 1 2 3 4 5 6 7 8 9 10 11 12 13 14 15 16
068
FTUS44 KBMX 262341
TAFEET
TAF
KEET 262341Z 2700/2724 09003KT P6SM SKC
     FM271400 05003KT P6SM FEW150=

USA.gov is the U.S. government's official web portal to all federal, state and local government web resources and services.